Leeds, Massachusetts
Current Conditions -  °F | °C
As of 4:53 PM on Tuesday 21 Oct 2014 (Local Time) from KBAF Reporting Station
Broken Clouds Broken Clouds  
Wind Chill: 58°   Ceiling: 11000
Heat Index: 58°   Visibility: 10mi
Dew Point: 48°   Wind: 10mph
Humidity: 70%   Direction: 20°NNE
Pressure: 29.89"   Gusts: NA
Location:  42.35°N, 72.7°W
Report Text: KBAF 212053Z 02009KT 10SM SCT070 BKN110 14/09 A2989 RMK AO2 SLP125 T01440089 55003
Loading
Personal Weather Stations






























Interactive Weather Map
Tropical Storm Tracking
New forecast layout! Learn more

10-Day Weather Forecast

Advertisements
Track Severe Weather on mobile